sensor_id;sensor_type;location;lat;lon;timestamp;P1;durP1;ratioP1;P2;durP2;ratioP2
16892;SDS011;8563;52.242;9.098;2022-08-03T00:00:16;2.97;;;2.10;;
16892;SDS011;8563;52.242;9.098;2022-08-03T00:02:49;3.08;;;2.47;;
16892;SDS011;8563;52.242;9.098;2022-08-03T00:05:21;2.50;;;2.30;;
16892;SDS011;8563;52.242;9.098;2022-08-03T00:07:55;2.30;;;2.00;;
16892;SDS011;8563;52.242;9.098;2022-08-03T00:10:28;3.08;;;2.28;;
16892;SDS011;8563;52.242;9.098;2022-08-03T00:13:00;2.75;;;2.47;;
16892;SDS011;8563;52.242;9.098;2022-08-03T00:15:33;2.72;;;2.50;;
16892;SDS011;8563;52.242;9.098;2022-08-03T00:18:06;4.90;;;2.33;;
16892;SDS011;8563;52.242;9.098;2022-08-03T00:20:38;5.97;;;2.50;;
16892;SDS011;8563;52.242;9.098;2022-08-03T00:23:13;2.80;;;2.38;;
16892;SDS011;8563;52.242;9.098;2022-08-03T00:25:46;2.67;;;2.42;;
16892;SDS011;8563;52.242;9.098;2022-08-03T00:28:18;2.50;;;2.30;;
16892;SDS011;8563;52.242;9.098;2022-08-03T00:30:50;2.83;;;2.42;;
16892;SDS011;8563;52.242;9.098;2022-08-03T00:33:25;2.80;;;2.40;;
16892;SDS011;8563;52.242;9.098;2022-08-03T00:35:57;3.58;;;2.50;;
16892;SDS011;8563;52.242;9.098;2022-08-03T00:38:31;4.45;;;2.17;;
16892;SDS011;8563;52.242;9.098;2022-08-03T00:41:04;2.83;;;2.63;;
16892;SDS011;8563;52.242;9.098;2022-08-03T00:43:36;3.80;;;2.20;;
16892;SDS011;8563;52.242;9.098;2022-08-03T00:46:09;2.97;;;2.30;;
16892;SDS011;8563;52.242;9.098;2022-08-03T00:48:41;2.50;;;2.30;;
16892;SDS011;8563;52.242;9.098;2022-08-03T00:51:14;2.60;;;2.40;;
16892;SDS011;8563;52.242;9.098;2022-08-03T00:53:48;2.58;;;2.10;;
16892;SDS011;8563;52.242;9.098;2022-08-03T00:56:21;3.15;;;2.30;;
16892;SDS011;8563;52.242;9.098;2022-08-03T00:58:53;3.08;;;2.30;;
16892;SDS011;8563;52.242;9.098;2022-08-03T01:01:29;2.67;;;2.47;;
16892;SDS011;8563;52.242;9.098;2022-08-03T01:04:01;2.42;;;2.22;;
16892;SDS011;8563;52.242;9.098;2022-08-03T01:06:35;2.90;;;2.40;;
16892;SDS011;8563;52.242;9.098;2022-08-03T01:09:18;3.63;;;2.88;;
16892;SDS011;8563;52.242;9.098;2022-08-03T01:11:58;3.00;;;2.70;;
16892;SDS011;8563;52.242;9.098;2022-08-03T01:14:37;2.70;;;2.50;;
16892;SDS011;8563;52.242;9.098;2022-08-03T01:17:15;2.30;;;2.20;;
16892;SDS011;8563;52.242;9.098;2022-08-03T01:19:55;2.50;;;2.30;;
16892;SDS011;8563;52.242;9.098;2022-08-03T01:25:44;3.10;;;2.70;;
16892;SDS011;8563;52.242;9.098;2022-08-03T01:28:42;2.72;;;2.53;;
16892;SDS011;8563;52.242;9.098;2022-08-03T01:31:31;3.28;;;2.97;;
16892;SDS011;8563;52.242;9.098;2022-08-03T01:34:08;3.17;;;2.30;;
16892;SDS011;8563;52.242;9.098;2022-08-03T01:36:47;3.28;;;2.42;;
16892;SDS011;8563;52.242;9.098;2022-08-03T01:39:23;4.72;;;2.70;;
16892;SDS011;8563;52.242;9.098;2022-08-03T01:41:57;4.00;;;2.75;;
16892;SDS011;8563;52.242;9.098;2022-08-03T01:44:36;3.00;;;2.70;;
16892;SDS011;8563;52.242;9.098;2022-08-03T01:47:13;2.80;;;2.50;;
16892;SDS011;8563;52.242;9.098;2022-08-03T01:49:49;3.88;;;2.40;;
16892;SDS011;8563;52.242;9.098;2022-08-03T01:52:23;2.80;;;2.60;;
16892;SDS011;8563;52.242;9.098;2022-08-03T01:54:56;2.70;;;2.50;;
16892;SDS011;8563;52.242;9.098;2022-08-03T01:57:29;3.53;;;2.85;;
16892;SDS011;8563;52.242;9.098;2022-08-03T02:00:03;3.53;;;2.92;;
16892;SDS011;8563;52.242;9.098;2022-08-03T02:02:43;2.80;;;2.60;;
16892;SDS011;8563;52.242;9.098;2022-08-03T02:05:18;3.83;;;2.58;;
16892;SDS011;8563;52.242;9.098;2022-08-03T02:07:51;3.30;;;2.83;;
16892;SDS011;8563;52.242;9.098;2022-08-03T02:10:26;2.60;;;2.40;;
16892;SDS011;8563;52.242;9.098;2022-08-03T02:13:00;3.67;;;2.30;;
16892;SDS011;8563;52.242;9.098;2022-08-03T02:15:36;2.85;;;2.20;;
16892;SDS011;8563;52.242;9.098;2022-08-03T02:18:10;2.90;;;2.70;;
16892;SDS011;8563;52.242;9.098;2022-08-03T02:20:44;3.83;;;2.90;;
16892;SDS011;8563;52.242;9.098;2022-08-03T02:23:18;3.05;;;2.67;;
16892;SDS011;8563;52.242;9.098;2022-08-03T02:25:56;2.85;;;2.60;;
16892;SDS011;8563;52.242;9.098;2022-08-03T02:28:31;4.18;;;2.60;;
16892;SDS011;8563;52.242;9.098;2022-08-03T02:31:10;2.53;;;2.33;;
16892;SDS011;8563;52.242;9.098;2022-08-03T02:33:48;4.57;;;2.72;;
16892;SDS011;8563;52.242;9.098;2022-08-03T02:36:23;2.67;;;2.47;;
16892;SDS011;8563;52.242;9.098;2022-08-03T02:38:59;3.03;;;2.80;;
16892;SDS011;8563;52.242;9.098;2022-08-03T02:41:34;3.72;;;2.53;;
16892;SDS011;8563;52.242;9.098;2022-08-03T02:44:11;2.67;;;2.45;;
16892;SDS011;8563;52.242;9.098;2022-08-03T02:46:45;4.03;;;2.40;;
16892;SDS011;8563;52.242;9.098;2022-08-03T02:49:21;2.80;;;2.60;;
16892;SDS011;8563;52.242;9.098;2022-08-03T02:51:55;2.60;;;2.40;;
16892;SDS011;8563;52.242;9.098;2022-08-03T02:54:29;5.00;;;2.78;;
16892;SDS011;8563;52.242;9.098;2022-08-03T02:57:05;3.00;;;2.70;;
16892;SDS011;8563;52.242;9.098;2022-08-03T02:59:40;2.67;;;2.47;;
16892;SDS011;8563;52.242;9.098;2022-08-03T03:02:14;2.88;;;2.22;;
16892;SDS011;8563;52.242;9.098;2022-08-03T03:04:50;2.55;;;2.35;;
16892;SDS011;8563;52.242;9.098;2022-08-03T03:07:24;2.85;;;2.42;;
16892;SDS011;8563;52.242;9.098;2022-08-03T03:09:57;2.92;;;2.50;;
16892;SDS011;8563;52.242;9.098;2022-08-03T03:12:31;2.67;;;2.47;;
16892;SDS011;8563;52.242;9.098;2022-08-03T03:15:05;3.20;;;2.70;;
16892;SDS011;8563;52.242;9.098;2022-08-03T03:17:38;4.00;;;2.63;;
16892;SDS011;8563;52.242;9.098;2022-08-03T03:20:13;3.58;;;2.97;;
16892;SDS011;8563;52.242;9.098;2022-08-03T03:22:46;3.25;;;2.90;;
16892;SDS011;8563;52.242;9.098;2022-08-03T03:25:19;3.00;;;2.70;;
16892;SDS011;8563;52.242;9.098;2022-08-03T03:27:53;2.58;;;2.38;;
16892;SDS011;8563;52.242;9.098;2022-08-03T03:30:26;3.35;;;2.67;;
16892;SDS011;8563;52.242;9.098;2022-08-03T03:32:59;2.80;;;2.60;;
16892;SDS011;8563;52.242;9.098;2022-08-03T03:35:33;2.70;;;2.50;;
16892;SDS011;8563;52.242;9.098;2022-08-03T03:38:06;4.10;;;2.78;;
16892;SDS011;8563;52.242;9.098;2022-08-03T03:40:38;3.15;;;2.90;;
16892;SDS011;8563;52.242;9.098;2022-08-03T03:43:11;2.92;;;2.60;;
16892;SDS011;8563;52.242;9.098;2022-08-03T03:45:45;3.22;;;2.58;;
16892;SDS011;8563;52.242;9.098;2022-08-03T03:48:18;4.15;;;3.22;;
16892;SDS011;8563;52.242;9.098;2022-08-03T03:50:53;3.17;;;2.70;;
16892;SDS011;8563;52.242;9.098;2022-08-03T03:53:26;2.83;;;2.60;;
16892;SDS011;8563;52.242;9.098;2022-08-03T03:55:58;3.10;;;2.80;;
16892;SDS011;8563;52.242;9.098;2022-08-03T03:58:31;3.33;;;3.03;;
16892;SDS011;8563;52.242;9.098;2022-08-03T04:01:04;4.00;;;2.85;;
16892;SDS011;8563;52.242;9.098;2022-08-03T04:03:38;3.78;;;2.88;;
16892;SDS011;8563;52.242;9.098;2022-08-03T04:06:12;3.47;;;2.70;;
16892;SDS011;8563;52.242;9.098;2022-08-03T04:09:02;3.38;;;2.75;;
16892;SDS011;8563;52.242;9.098;2022-08-03T04:11:53;4.78;;;2.65;;
16892;SDS011;8563;52.242;9.098;2022-08-03T04:14:31;6.75;;;3.60;;
16892;SDS011;8563;52.242;9.098;2022-08-03T04:17:06;4.22;;;2.83;;
16892;SDS011;8563;52.242;9.098;2022-08-03T04:19:42;2.97;;;2.70;;
16892;SDS011;8563;52.242;9.098;2022-08-03T04:22:24;3.65;;;2.75;;
16892;SDS011;8563;52.242;9.098;2022-08-03T04:24:58;3.20;;;2.85;;
16892;SDS011;8563;52.242;9.098;2022-08-03T04:27:35;3.03;;;2.67;;
16892;SDS011;8563;52.242;9.098;2022-08-03T04:30:09;3.20;;;2.90;;
16892;SDS011;8563;52.242;9.098;2022-08-03T04:32:42;3.08;;;2.78;;
16892;SDS011;8563;52.242;9.098;2022-08-03T04:35:21;3.47;;;3.17;;
16892;SDS011;8563;52.242;9.098;2022-08-03T04:37:58;4.00;;;3.00;;
16892;SDS011;8563;52.242;9.098;2022-08-03T04:40:33;3.00;;;2.70;;
16892;SDS011;8563;52.242;9.098;2022-08-03T04:43:08;4.93;;;2.60;;
16892;SDS011;8563;52.242;9.098;2022-08-03T04:45:42;3.30;;;2.60;;
16892;SDS011;8563;52.242;9.098;2022-08-03T04:48:17;3.38;;;2.72;;
16892;SDS011;8563;52.242;9.098;2022-08-03T04:50:50;3.35;;;2.85;;
16892;SDS011;8563;52.242;9.098;2022-08-03T04:53:25;5.05;;;2.95;;
16892;SDS011;8563;52.242;9.098;2022-08-03T04:56:02;3.03;;;2.55;;
16892;SDS011;8563;52.242;9.098;2022-08-03T04:58:35;3.88;;;2.67;;
16892;SDS011;8563;52.242;9.098;2022-08-03T05:01:08;2.95;;;2.70;;
16892;SDS011;8563;52.242;9.098;2022-08-03T05:03:40;4.28;;;2.85;;
16892;SDS011;8563;52.242;9.098;2022-08-03T05:06:13;2.53;;;2.33;;
16892;SDS011;8563;52.242;9.098;2022-08-03T05:08:47;3.88;;;2.40;;
16892;SDS011;8563;52.242;9.098;2022-08-03T05:11:19;3.67;;;2.80;;
16892;SDS011;8563;52.242;9.098;2022-08-03T05:13:52;3.38;;;2.95;;
16892;SDS011;8563;52.242;9.098;2022-08-03T05:16:24;3.50;;;2.85;;
16892;SDS011;8563;52.242;9.098;2022-08-03T05:18:56;4.22;;;2.65;;
16892;SDS011;8563;52.242;9.098;2022-08-03T05:21:29;3.33;;;2.97;;
16892;SDS011;8563;52.242;9.098;2022-08-03T05:24:03;4.13;;;2.40;;
16892;SDS011;8563;52.242;9.098;2022-08-03T05:26:36;3.33;;;2.78;;
16892;SDS011;8563;52.242;9.098;2022-08-03T05:29:08;2.92;;;2.70;;
16892;SDS011;8563;52.242;9.098;2022-08-03T05:31:40;3.63;;;3.03;;
16892;SDS011;8563;52.242;9.098;2022-08-03T05:34:13;7.28;;;2.70;;
16892;SDS011;8563;52.242;9.098;2022-08-03T05:36:46;5.03;;;2.40;;
16892;SDS011;8563;52.242;9.098;2022-08-03T05:39:20;4.35;;;2.90;;
16892;SDS011;8563;52.242;9.098;2022-08-03T05:41:52;4.55;;;2.65;;
16892;SDS011;8563;52.242;9.098;2022-08-03T05:44:25;3.63;;;2.85;;
16892;SDS011;8563;52.242;9.098;2022-08-03T05:46:58;3.17;;;2.72;;
16892;SDS011;8563;52.242;9.098;2022-08-03T05:49:31;4.50;;;2.50;;
16892;SDS011;8563;52.242;9.098;2022-08-03T05:52:03;3.30;;;2.50;;
16892;SDS011;8563;52.242;9.098;2022-08-03T05:54:38;2.83;;;2.60;;
16892;SDS011;8563;52.242;9.098;2022-08-03T05:57:10;6.18;;;2.60;;
16892;SDS011;8563;52.242;9.098;2022-08-03T05:59:43;6.72;;;2.80;;
16892;SDS011;8563;52.242;9.098;2022-08-03T06:02:15;3.58;;;2.60;;
16892;SDS011;8563;52.242;9.098;2022-08-03T06:04:48;3.10;;;2.75;;
16892;SDS011;8563;52.242;9.098;2022-08-03T06:07:20;5.65;;;2.90;;
16892;SDS011;8563;52.242;9.098;2022-08-03T06:09:54;3.33;;;2.60;;
16892;SDS011;8563;52.242;9.098;2022-08-03T06:12:27;5.45;;;2.55;;
16892;SDS011;8563;52.242;9.098;2022-08-03T06:15:00;2.70;;;2.50;;
16892;SDS011;8563;52.242;9.098;2022-08-03T06:17:34;3.85;;;2.53;;
16892;SDS011;8563;52.242;9.098;2022-08-03T06:20:15;4.60;;;2.22;;
16892;SDS011;8563;52.242;9.098;2022-08-03T06:22:48;7.95;;;2.60;;
16892;SDS011;8563;52.242;9.098;2022-08-03T06:25:22;6.22;;;2.42;;
16892;SDS011;8563;52.242;9.098;2022-08-03T06:27:55;3.30;;;2.00;;
16892;SDS011;8563;52.242;9.098;2022-08-03T06:30:28;3.65;;;2.33;;
16892;SDS011;8563;52.242;9.098;2022-08-03T06:33:01;7.95;;;2.63;;
16892;SDS011;8563;52.242;9.098;2022-08-03T06:35:34;3.40;;;2.35;;
16892;SDS011;8563;52.242;9.098;2022-08-03T06:38:06;4.18;;;2.47;;
16892;SDS011;8563;52.242;9.098;2022-08-03T06:40:40;4.05;;;2.20;;
16892;SDS011;8563;52.242;9.098;2022-08-03T06:43:13;2.28;;;2.08;;
16892;SDS011;8563;52.242;9.098;2022-08-03T06:45:45;5.53;;;2.63;;
16892;SDS011;8563;52.242;9.098;2022-08-03T06:48:18;3.35;;;2.47;;
16892;SDS011;8563;52.242;9.098;2022-08-03T06:50:50;3.55;;;3.00;;
16892;SDS011;8563;52.242;9.098;2022-08-03T06:53:23;2.63;;;2.40;;
16892;SDS011;8563;52.242;9.098;2022-08-03T06:55:57;4.75;;;2.50;;
16892;SDS011;8563;52.242;9.098;2022-08-03T06:58:29;3.72;;;2.50;;
16892;SDS011;8563;52.242;9.098;2022-08-03T07:01:02;3.78;;;2.30;;
16892;SDS011;8563;52.242;9.098;2022-08-03T07:03:34;3.00;;;2.70;;
16892;SDS011;8563;52.242;9.098;2022-08-03T07:06:06;3.95;;;2.55;;
16892;SDS011;8563;52.242;9.098;2022-08-03T07:08:39;6.53;;;2.60;;
16892;SDS011;8563;52.242;9.098;2022-08-03T07:11:13;4.75;;;2.70;;
16892;SDS011;8563;52.242;9.098;2022-08-03T07:13:45;3.83;;;2.47;;
16892;SDS011;8563;52.242;9.098;2022-08-03T07:16:18;4.68;;;2.80;;
16892;SDS011;8563;52.242;9.098;2022-08-03T07:18:50;2.92;;;2.47;;
16892;SDS011;8563;52.242;9.098;2022-08-03T07:21:23;4.50;;;2.50;;
16892;SDS011;8563;52.242;9.098;2022-08-03T07:23:55;4.32;;;2.92;;
16892;SDS011;8563;52.242;9.098;2022-08-03T07:26:29;2.88;;;2.30;;
16892;SDS011;8563;52.242;9.098;2022-08-03T07:29:02;4.60;;;2.15;;
16892;SDS011;8563;52.242;9.098;2022-08-03T07:31:35;3.92;;;2.30;;
16892;SDS011;8563;52.242;9.098;2022-08-03T07:34:08;2.20;;;2.00;;
16892;SDS011;8563;52.242;9.098;2022-08-03T07:36:40;2.97;;;2.28;;
16892;SDS011;8563;52.242;9.098;2022-08-03T07:39:13;2.50;;;2.30;;
16892;SDS011;8563;52.242;9.098;2022-08-03T07:41:47;3.17;;;2.22;;
16892;SDS011;8563;52.242;9.098;2022-08-03T07:44:21;2.45;;;2.03;;
16892;SDS011;8563;52.242;9.098;2022-08-03T07:46:53;3.20;;;2.08;;
16892;SDS011;8563;52.242;9.098;2022-08-03T07:49:26;4.78;;;2.28;;
16892;SDS011;8563;52.242;9.098;2022-08-03T07:51:58;4.82;;;2.10;;
16892;SDS011;8563;52.242;9.098;2022-08-03T07:54:48;3.22;;;2.28;;
16892;SDS011;8563;52.242;9.098;2022-08-03T07:57:22;2.72;;;2.28;;
16892;SDS011;8563;52.242;9.098;2022-08-03T07:59:54;3.65;;;2.25;;
16892;SDS011;8563;52.242;9.098;2022-08-03T08:02:26;2.35;;;2.00;;
16892;SDS011;8563;52.242;9.098;2022-08-03T08:04:59;3.67;;;1.95;;
16892;SDS011;8563;52.242;9.098;2022-08-03T08:07:31;1.92;;;1.80;;
16892;SDS011;8563;52.242;9.098;2022-08-03T08:10:04;4.25;;;1.92;;
16892;SDS011;8563;52.242;9.098;2022-08-03T08:12:40;3.22;;;1.77;;
16892;SDS011;8563;52.242;9.098;2022-08-03T08:15:13;4.13;;;2.20;;
16892;SDS011;8563;52.242;9.098;2022-08-03T08:17:47;4.03;;;2.10;;
16892;SDS011;8563;52.242;9.098;2022-08-03T08:20:21;4.47;;;1.80;;
16892;SDS011;8563;52.242;9.098;2022-08-03T08:22:57;5.88;;;1.90;;
16892;SDS011;8563;52.242;9.098;2022-08-03T08:25:30;2.95;;;1.90;;
16892;SDS011;8563;52.242;9.098;2022-08-03T08:28:04;3.63;;;2.25;;
16892;SDS011;8563;52.242;9.098;2022-08-03T08:30:37;2.47;;;2.03;;
16892;SDS011;8563;52.242;9.098;2022-08-03T08:33:10;2.28;;;1.75;;
16892;SDS011;8563;52.242;9.098;2022-08-03T08:35:42;2.38;;;1.60;;
16892;SDS011;8563;52.242;9.098;2022-08-03T08:38:15;3.25;;;1.65;;
16892;SDS011;8563;52.242;9.098;2022-08-03T08:40:48;1.98;;;1.58;;
16892;SDS011;8563;52.242;9.098;2022-08-03T08:43:23;2.22;;;2.00;;
16892;SDS011;8563;52.242;9.098;2022-08-03T08:45:56;3.33;;;1.50;;
16892;SDS011;8563;52.242;9.098;2022-08-03T08:48:29;3.88;;;1.70;;
16892;SDS011;8563;52.242;9.098;2022-08-03T08:51:02;3.95;;;2.00;;
16892;SDS011;8563;52.242;9.098;2022-08-03T08:53:36;3.28;;;1.65;;
16892;SDS011;8563;52.242;9.098;2022-08-03T08:56:12;3.40;;;1.80;;
16892;SDS011;8563;52.242;9.098;2022-08-03T08:58:48;3.75;;;1.55;;
16892;SDS011;8563;52.242;9.098;2022-08-03T09:01:22;2.08;;;1.35;;
16892;SDS011;8563;52.242;9.098;2022-08-03T09:03:55;2.47;;;1.52;;
16892;SDS011;8563;52.242;9.098;2022-08-03T09:06:28;3.45;;;1.80;;
16892;SDS011;8563;52.242;9.098;2022-08-03T09:09:02;6.95;;;1.70;;
16892;SDS011;8563;52.242;9.098;2022-08-03T09:11:36;6.47;;;1.77;;
16892;SDS011;8563;52.242;9.098;2022-08-03T09:14:14;1.70;;;1.60;;
16892;SDS011;8563;52.242;9.098;2022-08-03T09:16:55;2.15;;;1.50;;
16892;SDS011;8563;52.242;9.098;2022-08-03T09:19:40;8.13;;;1.52;;
16892;SDS011;8563;52.242;9.098;2022-08-03T09:22:13;3.00;;;1.20;;
16892;SDS011;8563;52.242;9.098;2022-08-03T09:24:53;2.90;;;1.52;;
16892;SDS011;8563;52.242;9.098;2022-08-03T09:27:27;1.65;;;1.38;;
16892;SDS011;8563;52.242;9.098;2022-08-03T09:30:02;7.88;;;1.63;;
16892;SDS011;8563;52.242;9.098;2022-08-03T09:32:47;4.28;;;1.58;;
16892;SDS011;8563;52.242;9.098;2022-08-03T09:35:24;4.22;;;1.65;;
16892;SDS011;8563;52.242;9.098;2022-08-03T09:38:08;1.85;;;1.40;;
16892;SDS011;8563;52.242;9.098;2022-08-03T09:40:42;4.30;;;1.42;;
16892;SDS011;8563;52.242;9.098;2022-08-03T09:43:15;3.00;;;1.50;;
16892;SDS011;8563;52.242;9.098;2022-08-03T09:45:49;6.35;;;1.70;;
16892;SDS011;8563;52.242;9.098;2022-08-03T09:48:32;3.25;;;1.48;;
16892;SDS011;8563;52.242;9.098;2022-08-03T09:51:06;3.10;;;1.70;;
16892;SDS011;8563;52.242;9.098;2022-08-03T09:53:42;3.25;;;1.73;;
16892;SDS011;8563;52.242;9.098;2022-08-03T09:56:15;6.72;;;1.83;;
16892;SDS011;8563;52.242;9.098;2022-08-03T09:58:48;5.03;;;1.30;;
16892;SDS011;8563;52.242;9.098;2022-08-03T10:01:22;2.90;;;1.63;;
16892;SDS011;8563;52.242;9.098;2022-08-03T10:04:04;3.40;;;1.60;;
16892;SDS011;8563;52.242;9.098;2022-08-03T10:06:36;3.47;;;1.60;;
16892;SDS011;8563;52.242;9.098;2022-08-03T10:09:09;4.57;;;1.80;;
16892;SDS011;8563;52.242;9.098;2022-08-03T10:11:44;3.80;;;1.60;;
16892;SDS011;8563;52.242;9.098;2022-08-03T10:14:17;2.67;;;1.80;;
16892;SDS011;8563;52.242;9.098;2022-08-03T10:16:53;6.32;;;1.60;;
16892;SDS011;8563;52.242;9.098;2022-08-03T10:19:26;2.65;;;1.48;;
16892;SDS011;8563;52.242;9.098;2022-08-03T10:22:00;3.63;;;1.70;;
16892;SDS011;8563;52.242;9.098;2022-08-03T10:24:35;5.13;;;1.60;;
16892;SDS011;8563;52.242;9.098;2022-08-03T10:27:09;8.32;;;1.58;;
16892;SDS011;8563;52.242;9.098;2022-08-03T10:29:44;6.63;;;1.80;;
16892;SDS011;8563;52.242;9.098;2022-08-03T10:32:24;3.45;;;1.70;;
16892;SDS011;8563;52.242;9.098;2022-08-03T10:35:02;3.15;;;1.67;;
16892;SDS011;8563;52.242;9.098;2022-08-03T10:37:39;4.45;;;1.48;;
16892;SDS011;8563;52.242;9.098;2022-08-03T10:40:14;3.28;;;1.42;;
16892;SDS011;8563;52.242;9.098;2022-08-03T10:42:50;1.85;;;1.70;;
16892;SDS011;8563;52.242;9.098;2022-08-03T10:45:26;3.88;;;1.38;;
16892;SDS011;8563;52.242;9.098;2022-08-03T10:48:02;4.72;;;1.67;;
16892;SDS011;8563;52.242;9.098;2022-08-03T10:50:36;2.40;;;1.33;;
16892;SDS011;8563;52.242;9.098;2022-08-03T10:53:10;2.95;;;1.52;;
16892;SDS011;8563;52.242;9.098;2022-08-03T10:55:43;3.13;;;1.60;;
16892;SDS011;8563;52.242;9.098;2022-08-03T11:04:23;1.65;;;1.30;;
16892;SDS011;8563;52.242;9.098;2022-08-03T11:09:52;4.40;;;1.67;;
16892;SDS011;8563;52.242;9.098;2022-08-03T11:12:26;2.58;;;1.65;;
16892;SDS011;8563;52.242;9.098;2022-08-03T11:15:01;2.92;;;1.63;;
16892;SDS011;8563;52.242;9.098;2022-08-03T11:17:36;2.85;;;1.77;;
16892;SDS011;8563;52.242;9.098;2022-08-03T11:20:10;1.65;;;1.52;;
16892;SDS011;8563;52.242;9.098;2022-08-03T11:22:46;3.67;;;1.50;;
16892;SDS011;8563;52.242;9.098;2022-08-03T11:25:20;3.25;;;1.65;;
16892;SDS011;8563;52.242;9.098;2022-08-03T11:34:04;3.03;;;1.42;;
16892;SDS011;8563;52.242;9.098;2022-08-03T11:39:46;1.90;;;1.40;;
16892;SDS011;8563;52.242;9.098;2022-08-03T11:42:39;5.32;;;1.50;;
16892;SDS011;8563;52.242;9.098;2022-08-03T11:45:14;4.45;;;1.80;;
16892;SDS011;8563;52.242;9.098;2022-08-03T11:47:49;2.78;;;1.45;;
16892;SDS011;8563;52.242;9.098;2022-08-03T11:50:34;3.38;;;1.65;;
16892;SDS011;8563;52.242;9.098;2022-08-03T11:53:11;2.45;;;1.50;;
16892;SDS011;8563;52.242;9.098;2022-08-03T11:55:48;2.20;;;1.50;;
16892;SDS011;8563;52.242;9.098;2022-08-03T11:58:22;3.13;;;1.65;;
16892;SDS011;8563;52.242;9.098;2022-08-03T12:01:02;1.95;;;1.17;;
16892;SDS011;8563;52.242;9.098;2022-08-03T12:03:35;3.25;;;1.50;;
16892;SDS011;8563;52.242;9.098;2022-08-03T12:06:08;4.60;;;1.65;;
16892;SDS011;8563;52.242;9.098;2022-08-03T12:08:42;3.53;;;1.42;;
16892;SDS011;8563;52.242;9.098;2022-08-03T12:11:17;3.85;;;1.65;;
16892;SDS011;8563;52.242;9.098;2022-08-03T12:13:50;4.43;;;1.50;;
16892;SDS011;8563;52.242;9.098;2022-08-03T12:16:23;4.78;;;1.63;;
16892;SDS011;8563;52.242;9.098;2022-08-03T12:18:58;4.13;;;1.67;;
16892;SDS011;8563;52.242;9.098;2022-08-03T12:21:33;3.47;;;1.60;;
16892;SDS011;8563;52.242;9.098;2022-08-03T12:24:06;2.70;;;1.60;;
16892;SDS011;8563;52.242;9.098;2022-08-03T12:26:42;2.75;;;1.60;;
16892;SDS011;8563;52.242;9.098;2022-08-03T12:29:16;3.00;;;1.65;;
16892;SDS011;8563;52.242;9.098;2022-08-03T12:31:49;1.88;;;1.45;;
16892;SDS011;8563;52.242;9.098;2022-08-03T12:34:21;2.20;;;1.63;;
16892;SDS011;8563;52.242;9.098;2022-08-03T12:36:54;2.40;;;1.75;;
16892;SDS011;8563;52.242;9.098;2022-08-03T12:39:28;1.83;;;1.50;;
16892;SDS011;8563;52.242;9.098;2022-08-03T12:42:02;2.55;;;1.52;;
16892;SDS011;8563;52.242;9.098;2022-08-03T12:44:34;4.05;;;1.90;;
16892;SDS011;8563;52.242;9.098;2022-08-03T12:47:07;4.95;;;1.83;;
16892;SDS011;8563;52.242;9.098;2022-08-03T12:49:44;2.40;;;1.73;;
16892;SDS011;8563;52.242;9.098;2022-08-03T12:52:18;2.42;;;1.58;;
16892;SDS011;8563;52.242;9.098;2022-08-03T12:54:55;2.25;;;1.30;;
16892;SDS011;8563;52.242;9.098;2022-08-03T12:57:40;2.05;;;1.60;;
16892;SDS011;8563;52.242;9.098;2022-08-03T13:00:14;4.05;;;1.60;;
16892;SDS011;8563;52.242;9.098;2022-08-03T13:02:57;2.47;;;1.50;;
16892;SDS011;8563;52.242;9.098;2022-08-03T13:05:31;4.15;;;1.77;;
16892;SDS011;8563;52.242;9.098;2022-08-03T13:08:16;4.15;;;1.80;;
16892;SDS011;8563;52.242;9.098;2022-08-03T13:10:50;7.90;;;1.70;;
16892;SDS011;8563;52.242;9.098;2022-08-03T13:16:11;1.70;;;1.30;;
16892;SDS011;8563;52.242;9.098;2022-08-03T13:18:44;3.33;;;1.63;;
16892;SDS011;8563;52.242;9.098;2022-08-03T13:21:17;3.25;;;1.65;;
16892;SDS011;8563;52.242;9.098;2022-08-03T13:23:50;2.30;;;1.70;;
16892;SDS011;8563;52.242;9.098;2022-08-03T13:26:23;4.70;;;1.90;;
16892;SDS011;8563;52.242;9.098;2022-08-03T13:28:57;3.95;;;1.73;;
16892;SDS011;8563;52.242;9.098;2022-08-03T13:31:30;3.85;;;1.65;;
16892;SDS011;8563;52.242;9.098;2022-08-03T13:34:02;1.95;;;1.50;;
16892;SDS011;8563;52.242;9.098;2022-08-03T13:36:34;2.55;;;1.58;;
16892;SDS011;8563;52.242;9.098;2022-08-03T13:39:07;2.35;;;1.65;;
16892;SDS011;8563;52.242;9.098;2022-08-03T13:41:39;3.58;;;1.42;;
16892;SDS011;8563;52.242;9.098;2022-08-03T13:44:13;2.45;;;1.33;;
16892;SDS011;8563;52.242;9.098;2022-08-03T13:46:46;3.97;;;1.98;;
16892;SDS011;8563;52.242;9.098;2022-08-03T13:49:19;3.20;;;1.70;;
16892;SDS011;8563;52.242;9.098;2022-08-03T13:51:52;3.50;;;1.90;;
16892;SDS011;8563;52.242;9.098;2022-08-03T13:54:24;3.53;;;1.63;;
16892;SDS011;8563;52.242;9.098;2022-08-03T13:56:57;2.53;;;1.40;;
16892;SDS011;8563;52.242;9.098;2022-08-03T13:59:30;3.53;;;1.48;;
16892;SDS011;8563;52.242;9.098;2022-08-03T14:02:03;2.33;;;1.48;;
16892;SDS011;8563;52.242;9.098;2022-08-03T14:04:36;3.67;;;1.55;;
16892;SDS011;8563;52.242;9.098;2022-08-03T14:07:09;2.10;;;1.65;;
16892;SDS011;8563;52.242;9.098;2022-08-03T14:09:43;3.08;;;1.67;;
16892;SDS011;8563;52.242;9.098;2022-08-03T14:12:16;3.17;;;1.65;;
16892;SDS011;8563;52.242;9.098;2022-08-03T14:14:50;3.30;;;1.52;;
16892;SDS011;8563;52.242;9.098;2022-08-03T14:17:22;5.10;;;1.70;;
16892;SDS011;8563;52.242;9.098;2022-08-03T14:19:55;2.95;;;1.70;;
16892;SDS011;8563;52.242;9.098;2022-08-03T14:22:27;2.80;;;1.60;;
16892;SDS011;8563;52.242;9.098;2022-08-03T14:24:59;2.63;;;1.55;;
16892;SDS011;8563;52.242;9.098;2022-08-03T14:27:32;1.95;;;1.60;;
16892;SDS011;8563;52.242;9.098;2022-08-03T14:30:06;2.03;;;1.38;;
16892;SDS011;8563;52.242;9.098;2022-08-03T14:32:39;5.65;;;1.80;;
16892;SDS011;8563;52.242;9.098;2022-08-03T14:35:12;2.58;;;1.70;;
16892;SDS011;8563;52.242;9.098;2022-08-03T14:37:44;4.78;;;1.45;;
16892;SDS011;8563;52.242;9.098;2022-08-03T14:40:17;5.03;;;1.98;;
16892;SDS011;8563;52.242;9.098;2022-08-03T14:42:50;1.90;;;1.70;;
16892;SDS011;8563;52.242;9.098;2022-08-03T14:45:24;2.33;;;1.60;;
16892;SDS011;8563;52.242;9.098;2022-08-03T14:47:56;2.38;;;1.70;;
16892;SDS011;8563;52.242;9.098;2022-08-03T14:50:29;2.20;;;1.90;;
16892;SDS011;8563;52.242;9.098;2022-08-03T14:53:02;1.80;;;1.60;;
16892;SDS011;8563;52.242;9.098;2022-08-03T14:55:34;2.88;;;1.73;;
16892;SDS011;8563;52.242;9.098;2022-08-03T14:58:07;2.45;;;1.83;;
16892;SDS011;8563;52.242;9.098;2022-08-03T15:00:41;3.10;;;1.65;;
16892;SDS011;8563;52.242;9.098;2022-08-03T15:03:14;4.13;;;1.70;;
16892;SDS011;8563;52.242;9.098;2022-08-03T15:05:49;3.47;;;1.67;;
16892;SDS011;8563;52.242;9.098;2022-08-03T15:08:22;3.25;;;1.60;;
16892;SDS011;8563;52.242;9.098;2022-08-03T15:10:56;1.88;;;1.70;;
16892;SDS011;8563;52.242;9.098;2022-08-03T15:13:28;4.25;;;2.00;;
16892;SDS011;8563;52.242;9.098;2022-08-03T15:16:02;4.95;;;1.98;;
16892;SDS011;8563;52.242;9.098;2022-08-03T15:18:35;4.10;;;2.22;;
16892;SDS011;8563;52.242;9.098;2022-08-03T15:21:08;2.80;;;1.80;;
16892;SDS011;8563;52.242;9.098;2022-08-03T15:23:41;3.65;;;2.00;;
16892;SDS011;8563;52.242;9.098;2022-08-03T15:26:13;2.65;;;2.20;;
16892;SDS011;8563;52.242;9.098;2022-08-03T15:28:46;2.65;;;1.88;;
16892;SDS011;8563;52.242;9.098;2022-08-03T15:31:21;3.55;;;1.80;;
16892;SDS011;8563;52.242;9.098;2022-08-03T15:33:53;2.75;;;1.88;;
16892;SDS011;8563;52.242;9.098;2022-08-03T15:36:26;2.55;;;1.73;;
16892;SDS011;8563;52.242;9.098;2022-08-03T15:38:58;2.63;;;1.80;;
16892;SDS011;8563;52.242;9.098;2022-08-03T15:41:31;4.85;;;1.85;;
16892;SDS011;8563;52.242;9.098;2022-08-03T15:44:03;4.72;;;1.80;;
16892;SDS011;8563;52.242;9.098;2022-08-03T15:46:37;1.63;;;1.42;;
16892;SDS011;8563;52.242;9.098;2022-08-03T15:49:10;2.75;;;1.70;;
16892;SDS011;8563;52.242;9.098;2022-08-03T15:51:42;5.22;;;2.17;;
16892;SDS011;8563;52.242;9.098;2022-08-03T15:54:14;2.13;;;1.63;;
16892;SDS011;8563;52.242;9.098;2022-08-03T15:56:47;2.47;;;1.65;;
16892;SDS011;8563;52.242;9.098;2022-08-03T15:59:19;3.20;;;1.60;;
16892;SDS011;8563;52.242;9.098;2022-08-03T16:01:54;2.28;;;1.65;;
16892;SDS011;8563;52.242;9.098;2022-08-03T16:04:26;3.15;;;1.88;;
16892;SDS011;8563;52.242;9.098;2022-08-03T16:06:59;2.13;;;1.60;;